createdAt,value
2023-04-15T00:02:41.214Z,58.82
2023-04-15T00:07:43.342Z,59.25
2023-04-15T00:12:45.326Z,59.78
2023-04-15T00:17:47.350Z,59.10
2023-04-15T00:22:49.114Z,59.39
2023-04-15T00:27:51.044Z,59.54
2023-04-15T00:32:53.008Z,59.69
2023-04-15T00:37:55.138Z,59.52
2023-04-15T00:42:57.152Z,60.71
2023-04-15T00:47:59.513Z,61.64
2023-04-15T00:53:01.500Z,60.99
2023-04-15T00:58:03.540Z,61.40
2023-04-15T01:03:05.605Z,61.07
2023-04-15T01:08:07.651Z,61.41
2023-04-15T01:13:09.687Z,61.50
2023-04-15T01:18:11.672Z,60.29
2023-04-15T01:23:13.978Z,61.58
2023-04-15T01:28:16.725Z,61.70
2023-04-15T01:33:18.825Z,60.94
2023-04-15T01:38:20.887Z,60.49
2023-04-15T01:43:22.748Z,61.61
2023-04-15T01:48:24.769Z,61.43
2023-04-15T01:53:26.701Z,61.99
2023-04-15T01:58:28.674Z,61.79
2023-04-15T02:03:30.729Z,62.25
2023-04-15T02:08:32.766Z,61.96
2023-04-15T02:13:34.797Z,61.28
2023-04-15T02:18:36.722Z,62.92
2023-04-15T02:23:38.969Z,62.44
2023-04-15T02:28:40.972Z,61.76
2023-04-15T02:33:42.785Z,62.33
2023-04-15T02:38:44.802Z,62.98
2023-04-15T02:43:46.533Z,62.43
2023-04-15T02:48:48.750Z,62.23
2023-04-15T02:53:51.219Z,62.44
2023-04-15T02:58:56.516Z,62.49
2023-04-15T03:03:58.673Z,62.12
2023-04-15T03:09:01.314Z,62.37
2023-04-15T03:14:03.499Z,62.44
2023-04-15T03:19:05.495Z,63.79
2023-04-15T03:24:07.293Z,63.77
2023-04-15T03:29:09.373Z,64.88
2023-04-15T03:34:11.376Z,64.65
2023-04-15T03:39:13.480Z,64.47
2023-04-15T03:44:15.332Z,65.13
2023-04-15T03:49:17.463Z,65.15
2023-04-15T03:54:19.488Z,64.79
2023-04-15T03:59:21.790Z,65.13
2023-04-15T04:04:24.328Z,64.97
2023-04-15T04:09:26.401Z,65.46
2023-04-15T04:14:30.133Z,65.96
2023-04-15T04:19:32.069Z,66.13
2023-04-15T04:24:34.174Z,65.48
2023-04-15T04:29:36.391Z,65.02
2023-04-15T04:34:38.324Z,66.89
2023-04-15T04:39:40.658Z,66.42
2023-04-15T04:44:42.971Z,66.06
2023-04-15T04:49:45.565Z,67.16
2023-04-15T04:54:48.098Z,66.11
2023-04-15T04:59:50.285Z,66.85
2023-04-15T05:04:54.644Z,67.23
2023-04-15T05:09:57.024Z,67.29
2023-04-15T05:14:59.061Z,67.52
2023-04-15T05:20:02.644Z,67.41
2023-04-15T05:25:05.185Z,67.56
2023-04-15T05:30:07.751Z,68.02
2023-04-15T05:35:09.955Z,68.20
2023-04-15T05:40:12.244Z,67.39
2023-04-15T05:45:14.224Z,67.40
2023-04-15T05:50:16.421Z,67.61
2023-04-15T05:55:19.785Z,67.99
2023-04-15T06:00:22.601Z,67.45
2023-04-15T06:05:24.963Z,66.86
2023-04-15T06:10:27.091Z,67.16
2023-04-15T06:15:29.141Z,67.51
2023-04-15T06:20:31.843Z,67.79
2023-04-15T06:25:34.625Z,68.29
2023-04-15T06:30:39.389Z,68.79
2023-04-15T06:35:43.264Z,67.15
2023-04-15T06:40:46.671Z,68.28
2023-04-15T06:45:49.235Z,68.27
2023-04-15T06:50:52.751Z,68.23
2023-04-15T06:55:54.956Z,68.13
2023-04-15T07:00:59.026Z,67.96
2023-04-15T07:06:02.079Z,67.55
2023-04-15T07:11:04.154Z,67.32
2023-04-15T07:16:06.089Z,67.90
2023-04-15T07:21:08.087Z,67.36
2023-04-15T07:26:10.166Z,68.48
2023-04-15T07:31:12.579Z,67.87
2023-04-15T07:36:15.904Z,68.67
2023-04-15T07:41:18.121Z,67.72
2023-04-15T07:46:32.915Z,68.86
2023-04-15T07:51:37.650Z,68.49
2023-04-15T07:56:40.581Z,68.27
2023-04-15T08:01:45.516Z,68.73
2023-04-15T08:06:54.026Z,68.55
2023-04-15T08:11:57.950Z,68.35
2023-04-15T08:17:02.819Z,67.76
2023-04-15T08:22:05.599Z,69.35
2023-04-15T08:27:18.386Z,68.95
2023-04-15T08:32:21.044Z,68.87
2023-04-15T08:37:23.485Z,68.71
2023-04-15T08:42:33.119Z,67.84
2023-04-15T08:47:41.895Z,68.76
2023-04-15T08:52:46.477Z,68.99
2023-04-15T08:57:51.087Z,69.15
2023-04-15T09:02:54.873Z,68.94
2023-04-15T09:07:57.058Z,67.98
2023-04-15T09:12:59.333Z,68.37
2023-04-15T09:18:01.678Z,68.96
2023-04-15T09:23:13.733Z,67.66
2023-04-15T09:28:24.086Z,68.97
2023-04-15T09:33:27.545Z,68.84
2023-04-15T09:38:29.832Z,68.11
2023-04-15T09:43:42.879Z,68.58
2023-04-15T09:48:45.133Z,70.44
2023-04-15T09:53:47.195Z,68.47
2023-04-15T09:59:06.153Z,69.13
2023-04-15T10:04:10.694Z,68.56
2023-04-15T10:09:19.123Z,68.74
2023-04-15T10:14:25.421Z,69.19
2023-04-15T10:19:29.985Z,70.34
2023-04-15T10:24:39.154Z,68.93
2023-04-15T10:29:44.911Z,69.11
2023-04-15T10:34:49.450Z,69.02
2023-04-15T10:40:23.173Z,68.46
2023-04-15T10:45:34.458Z,69.11
2023-04-15T10:50:40.386Z,69.43
2023-04-15T10:55:43.753Z,69.55
2023-04-15T11:00:53.476Z,69.45
2023-04-15T11:05:56.965Z,68.37
2023-04-15T11:11:07.752Z,69.62
2023-04-15T11:16:10.306Z,69.22
2023-04-15T11:21:14.958Z,69.37
2023-04-15T11:26:17.486Z,69.62
2023-04-15T11:31:20.477Z,68.42
2023-04-15T11:36:29.250Z,70.12
2023-04-15T11:41:31.472Z,69.92
2023-04-15T11:46:33.771Z,71.17
2023-04-15T11:51:38.509Z,70.79
2023-04-15T11:56:40.774Z,69.54
2023-04-15T12:01:47.457Z,69.41
2023-04-15T12:06:51.088Z,69.40
2023-04-15T12:11:54.140Z,68.70
2023-04-15T12:17:07.618Z,70.07
2023-04-15T12:22:13.639Z,70.71
2023-04-15T12:27:17.986Z,70.56
2023-04-15T12:32:21.411Z,69.72
2023-04-15T12:37:23.798Z,71.13
2023-04-15T12:42:25.955Z,70.63
2023-04-15T12:47:34.533Z,70.02
2023-04-15T12:52:36.637Z,69.68
2023-04-15T12:57:46.721Z,70.24
2023-04-15T13:02:55.939Z,69.99
2023-04-15T13:08:00.132Z,69.95
2023-04-15T13:13:02.507Z,68.74
2023-04-15T13:18:07.419Z,69.85
2023-04-15T13:23:10.190Z,69.71
2023-04-15T13:28:12.520Z,69.13
2023-04-15T13:33:14.771Z,69.13
2023-04-15T13:38:17.033Z,68.99
2023-04-15T13:43:19.296Z,69.85
2023-04-15T13:48:21.586Z,69.51
2023-04-15T13:53:37.710Z,69.76
2023-04-15T13:58:41.813Z,69.49
2023-04-15T14:03:44.168Z,69.07
2023-04-15T14:08:46.998Z,69.05
2023-04-15T14:13:49.126Z,70.07
2023-04-15T14:18:51.251Z,69.44
2023-04-15T14:23:53.318Z,69.53
2023-04-15T14:28:55.587Z,69.06
2023-04-15T14:33:58.026Z,69.22
2023-04-15T14:39:00.503Z,69.36
2023-04-15T14:44:03.245Z,69.89
2023-04-15T14:49:05.843Z,68.99
2023-04-15T14:54:08.227Z,68.51
2023-04-15T14:59:10.438Z,68.33
2023-04-15T15:04:14.078Z,68.61
2023-04-15T15:09:16.610Z,68.24
2023-04-15T15:14:18.799Z,67.94
2023-04-15T15:19:21.048Z,67.78
2023-04-15T15:24:23.545Z,67.49
2023-04-15T15:29:25.859Z,75.47
2023-04-15T15:34:28.440Z,75.96
2023-04-15T15:39:37.336Z,73.70
2023-04-15T15:44:52.036Z,70.98
2023-04-15T15:50:06.497Z,70.30
2023-04-15T15:55:12.824Z,70.84
2023-04-15T16:00:19.941Z,69.93
2023-04-15T16:05:31.354Z,69.29
2023-04-15T16:10:54.275Z,69.60
2023-04-15T16:16:07.456Z,70.12
2023-04-15T16:21:10.656Z,69.95
2023-04-15T16:32:35.723Z,69.55
2023-04-15T16:37:42.709Z,69.94
2023-04-15T16:54:08.870Z,69.71
2023-04-15T16:59:19.282Z,69.08
2023-04-15T17:04:49.399Z,69.61
2023-04-15T17:09:53.308Z,69.29
2023-04-15T17:14:57.443Z,69.36
2023-04-15T17:20:00.318Z,68.86
2023-04-15T17:25:03.374Z,69.82
2023-04-15T17:30:07.991Z,69.67
2023-04-15T17:35:11.246Z,69.31
2023-04-15T17:40:16.090Z,69.57
2023-04-15T17:45:19.490Z,70.00
2023-04-15T17:50:26.249Z,69.45
2023-04-15T17:55:36.521Z,69.03
2023-04-15T18:00:44.069Z,69.95
2023-04-15T18:05:52.737Z,68.95
2023-04-15T18:16:29.963Z,69.57
2023-04-15T18:21:42.268Z,68.83
2023-04-15T18:26:49.314Z,69.13
2023-04-15T18:31:58.418Z,68.73
2023-04-15T18:37:20.614Z,68.79
2023-04-15T18:42:26.779Z,68.15
2023-04-15T18:47:35.179Z,68.11
2023-04-15T18:52:44.324Z,67.97
2023-04-15T18:57:49.004Z,68.64
2023-04-15T19:02:56.709Z,67.72
2023-04-15T19:08:01.857Z,67.74
2023-04-15T19:13:06.182Z,68.49
2023-04-15T19:18:15.353Z,67.90
2023-04-15T19:29:02.998Z,68.01
2023-04-15T19:34:06.917Z,67.88
2023-04-15T19:49:59.694Z,68.50
2023-04-15T19:55:02.270Z,68.21
2023-04-15T20:00:04.369Z,68.55
2023-04-15T20:05:10.083Z,67.90
2023-04-15T20:10:13.238Z,67.67
2023-04-15T20:15:16.134Z,68.16
2023-04-15T20:20:18.078Z,68.36
2023-04-15T20:25:19.963Z,67.91
2023-04-15T20:30:22.031Z,67.93
2023-04-15T20:35:25.199Z,67.98
2023-04-15T20:40:27.220Z,68.16
2023-04-15T20:45:29.092Z,68.15
2023-04-15T20:50:30.941Z,68.18
2023-04-15T20:55:32.733Z,68.24
2023-04-15T21:00:34.870Z,68.40
2023-04-15T21:05:36.734Z,68.03
2023-04-15T21:10:40.291Z,68.21
2023-04-15T21:15:42.174Z,68.32
2023-04-15T21:20:44.029Z,68.36
2023-04-15T21:25:46.081Z,68.47
2023-04-15T21:30:48.288Z,68.42
2023-04-15T21:35:50.345Z,68.72
2023-04-15T21:40:52.288Z,68.88
2023-04-15T21:46:23.469Z,69.21
2023-04-15T21:51:16.411Z,69.02
2023-04-15T21:56:18.087Z,68.91
2023-04-15T22:01:19.968Z,69.08
2023-04-15T22:06:22.058Z,68.99
2023-04-15T22:11:27.942Z,68.59
2023-04-15T22:16:30.164Z,68.70
2023-04-15T22:21:32.196Z,68.81
2023-04-15T22:26:34.104Z,68.88
2023-04-15T22:31:35.979Z,68.70
2023-04-15T22:36:37.841Z,68.40
2023-04-15T22:41:39.688Z,68.57
2023-04-15T22:46:41.731Z,69.03
2023-04-15T22:51:43.898Z,69.23
2023-04-15T22:56:45.977Z,69.03
2023-04-15T23:01:47.963Z,68.77
2023-04-15T23:06:49.972Z,68.67
2023-04-15T23:11:51.931Z,68.74
2023-04-15T23:16:54.501Z,68.87
2023-04-15T23:21:56.364Z,68.73
2023-04-15T23:26:58.259Z,68.82
2023-04-15T23:32:00.260Z,69.35
2023-04-15T23:37:02.221Z,69.18
2023-04-15T23:42:04.284Z,69.05
2023-04-15T23:47:06.167Z,68.84
2023-04-15T23:52:08.262Z,69.29
2023-04-15T23:57:10.218Z,69.18
